Audley, United Kingdom
Current Conditions -  °F | °C
As of 10:20 AM on Thursday 27 Nov 2014 (Local Time) from EGCC Reporting Station
Haze Haze  
Wind Chill: 45°   Ceiling: 1600
Heat Index: 45°   Visibility: 2.5mi
Dew Point: 45°   Wind: 2mph
Humidity: 100%   Direction: 190°S
Pressure: 29.59"   Gusts: NA
Location:  53.05°N, 2.3°W
Report Text: EGCC 271020Z 19002KT 4000 BR SCT010 BKN016 07/07 Q1002 TEMPO BKN010
Loading
Personal Weather Stations






























Interactive Weather Map New forecast layout! Learn more

10-Day Weather Forecast

Advertisements
Track Severe Weather on mobile